sensor_id;sensor_type;location;lat;lon;timestamp;P1;durP1;ratioP1;P2;durP2;ratioP2
72261;SDS011;60173;52.112;8.648;2023-03-31T00:01:12;7.95;;;2.00;;
72261;SDS011;60173;52.112;8.648;2023-03-31T00:03:39;7.22;;;2.03;;
72261;SDS011;60173;52.112;8.648;2023-03-31T00:06:05;10.55;;;1.98;;
72261;SDS011;60173;52.112;8.648;2023-03-31T00:08:33;9.00;;;2.58;;
72261;SDS011;60173;52.112;8.648;2023-03-31T00:11:00;6.25;;;1.83;;
72261;SDS011;60173;52.112;8.648;2023-03-31T00:13:28;10.18;;;2.20;;
72261;SDS011;60173;52.112;8.648;2023-03-31T00:15:56;8.10;;;1.95;;
72261;SDS011;60173;52.112;8.648;2023-03-31T00:18:33;7.43;;;2.22;;
72261;SDS011;60173;52.112;8.648;2023-03-31T00:21:13;9.85;;;2.00;;
72261;SDS011;60173;52.112;8.648;2023-03-31T00:23:41;6.75;;;2.08;;
72261;SDS011;60173;52.112;8.648;2023-03-31T00:26:07;7.40;;;2.22;;
72261;SDS011;60173;52.112;8.648;2023-03-31T00:28:34;8.05;;;2.53;;
72261;SDS011;60173;52.112;8.648;2023-03-31T00:31:01;9.80;;;2.38;;
72261;SDS011;60173;52.112;8.648;2023-03-31T00:33:28;8.82;;;2.30;;
72261;SDS011;60173;52.112;8.648;2023-03-31T00:35:55;10.55;;;2.17;;
72261;SDS011;60173;52.112;8.648;2023-03-31T00:38:21;5.53;;;1.73;;
72261;SDS011;60173;52.112;8.648;2023-03-31T00:40:48;9.90;;;2.05;;
72261;SDS011;60173;52.112;8.648;2023-03-31T00:43:30;10.95;;;1.90;;
72261;SDS011;60173;52.112;8.648;2023-03-31T00:46:04;12.95;;;2.45;;
72261;SDS011;60173;52.112;8.648;2023-03-31T00:48:36;6.72;;;2.15;;
72261;SDS011;60173;52.112;8.648;2023-03-31T00:51:03;8.15;;;2.30;;
72261;SDS011;60173;52.112;8.648;2023-03-31T00:53:32;6.40;;;2.28;;
72261;SDS011;60173;52.112;8.648;2023-03-31T00:56:03;9.35;;;2.70;;
72261;SDS011;60173;52.112;8.648;2023-03-31T00:58:34;11.10;;;3.05;;
72261;SDS011;60173;52.112;8.648;2023-03-31T01:01:01;10.02;;;3.50;;
72261;SDS011;60173;52.112;8.648;2023-03-31T01:03:29;9.88;;;3.53;;
72261;SDS011;60173;52.112;8.648;2023-03-31T01:05:58;8.10;;;3.13;;
72261;SDS011;60173;52.112;8.648;2023-03-31T01:08:27;9.05;;;3.00;;
72261;SDS011;60173;52.112;8.648;2023-03-31T01:10:55;11.90;;;3.35;;
72261;SDS011;60173;52.112;8.648;2023-03-31T01:13:25;11.50;;;3.55;;
72261;SDS011;60173;52.112;8.648;2023-03-31T01:15:52;7.50;;;2.78;;
72261;SDS011;60173;52.112;8.648;2023-03-31T01:18:18;11.38;;;3.70;;
72261;SDS011;60173;52.112;8.648;2023-03-31T01:32:48;6.25;;;2.50;;
72261;SDS011;60173;52.112;8.648;2023-03-31T01:35:44;10.50;;;2.20;;
72261;SDS011;60173;52.112;8.648;2023-03-31T01:41:15;9.00;;;2.40;;
72261;SDS011;60173;52.112;8.648;2023-03-31T01:43:46;9.55;;;2.40;;
72261;SDS011;60173;52.112;8.648;2023-03-31T01:46:36;9.05;;;2.45;;
72261;SDS011;60173;52.112;8.648;2023-03-31T01:57:32;7.53;;;2.40;;
72261;SDS011;60173;52.112;8.648;2023-03-31T02:02:34;11.48;;;2.55;;
72261;SDS011;60173;52.112;8.648;2023-03-31T02:05:06;7.03;;;2.13;;
72261;SDS011;60173;52.112;8.648;2023-03-31T02:07:37;10.07;;;2.50;;
72261;SDS011;60173;52.112;8.648;2023-03-31T02:10:08;7.85;;;2.33;;
72261;SDS011;60173;52.112;8.648;2023-03-31T02:12:38;12.13;;;2.55;;
72261;SDS011;60173;52.112;8.648;2023-03-31T02:15:08;9.88;;;2.60;;
72261;SDS011;60173;52.112;8.648;2023-03-31T02:17:38;9.10;;;2.58;;
72261;SDS011;60173;52.112;8.648;2023-03-31T02:20:09;10.50;;;2.72;;
72261;SDS011;60173;52.112;8.648;2023-03-31T02:22:38;8.18;;;2.63;;
72261;SDS011;60173;52.112;8.648;2023-03-31T02:25:09;10.55;;;2.40;;
72261;SDS011;60173;52.112;8.648;2023-03-31T02:27:40;7.88;;;2.20;;
72261;SDS011;60173;52.112;8.648;2023-03-31T02:30:10;7.15;;;2.33;;
72261;SDS011;60173;52.112;8.648;2023-03-31T02:32:37;10.90;;;2.20;;
72261;SDS011;60173;52.112;8.648;2023-03-31T02:35:07;6.35;;;2.42;;
72261;SDS011;60173;52.112;8.648;2023-03-31T02:37:37;8.38;;;2.45;;
72261;SDS011;60173;52.112;8.648;2023-03-31T02:40:06;12.18;;;2.20;;
72261;SDS011;60173;52.112;8.648;2023-03-31T02:42:40;5.28;;;2.15;;
72261;SDS011;60173;52.112;8.648;2023-03-31T02:45:35;7.30;;;2.17;;
72261;SDS011;60173;52.112;8.648;2023-03-31T02:48:02;6.57;;;2.25;;
72261;SDS011;60173;52.112;8.648;2023-03-31T02:50:31;14.15;;;2.42;;
72261;SDS011;60173;52.112;8.648;2023-03-31T02:53:19;9.77;;;2.22;;
72261;SDS011;60173;52.112;8.648;2023-03-31T03:01:36;7.50;;;2.13;;
72261;SDS011;60173;52.112;8.648;2023-03-31T03:04:24;8.57;;;2.22;;
72261;SDS011;60173;52.112;8.648;2023-03-31T03:12:33;8.32;;;2.53;;
72261;SDS011;60173;52.112;8.648;2023-03-31T03:15:10;8.07;;;2.10;;
72261;SDS011;60173;52.112;8.648;2023-03-31T03:17:43;8.07;;;2.83;;
72261;SDS011;60173;52.112;8.648;2023-03-31T03:20:12;7.47;;;1.98;;
72261;SDS011;60173;52.112;8.648;2023-03-31T03:22:40;11.18;;;2.25;;
72261;SDS011;60173;52.112;8.648;2023-03-31T03:25:09;9.35;;;2.05;;
72261;SDS011;60173;52.112;8.648;2023-03-31T03:27:37;9.63;;;2.20;;
72261;SDS011;60173;52.112;8.648;2023-03-31T03:30:05;11.15;;;1.80;;
72261;SDS011;60173;52.112;8.648;2023-03-31T03:32:33;8.98;;;2.33;;
72261;SDS011;60173;52.112;8.648;2023-03-31T03:35:00;6.47;;;2.03;;
72261;SDS011;60173;52.112;8.648;2023-03-31T03:37:27;9.25;;;2.40;;
72261;SDS011;60173;52.112;8.648;2023-03-31T03:39:55;9.95;;;2.55;;
72261;SDS011;60173;52.112;8.648;2023-03-31T03:42:21;9.93;;;2.20;;
72261;SDS011;60173;52.112;8.648;2023-03-31T03:44:48;9.68;;;2.50;;
72261;SDS011;60173;52.112;8.648;2023-03-31T03:47:14;6.53;;;2.05;;
72261;SDS011;60173;52.112;8.648;2023-03-31T03:49:41;10.20;;;2.15;;
72261;SDS011;60173;52.112;8.648;2023-03-31T03:52:07;6.97;;;2.10;;
72261;SDS011;60173;52.112;8.648;2023-03-31T03:54:33;12.77;;;2.63;;
72261;SDS011;60173;52.112;8.648;2023-03-31T03:57:00;9.27;;;2.42;;
72261;SDS011;60173;52.112;8.648;2023-03-31T03:59:26;7.07;;;2.15;;
72261;SDS011;60173;52.112;8.648;2023-03-31T04:01:53;6.78;;;2.00;;
72261;SDS011;60173;52.112;8.648;2023-03-31T04:04:19;14.63;;;2.72;;
72261;SDS011;60173;52.112;8.648;2023-03-31T04:06:45;11.13;;;2.47;;
72261;SDS011;60173;52.112;8.648;2023-03-31T04:09:12;8.55;;;2.22;;
72261;SDS011;60173;52.112;8.648;2023-03-31T04:11:38;13.60;;;2.90;;
72261;SDS011;60173;52.112;8.648;2023-03-31T04:14:04;10.60;;;2.40;;
72261;SDS011;60173;52.112;8.648;2023-03-31T04:16:30;11.85;;;2.28;;
72261;SDS011;60173;52.112;8.648;2023-03-31T04:18:57;12.02;;;3.20;;
72261;SDS011;60173;52.112;8.648;2023-03-31T04:21:23;9.73;;;2.60;;
72261;SDS011;60173;52.112;8.648;2023-03-31T04:23:51;10.35;;;2.30;;
72261;SDS011;60173;52.112;8.648;2023-03-31T04:26:19;12.13;;;3.05;;
72261;SDS011;60173;52.112;8.648;2023-03-31T04:28:45;9.55;;;2.60;;
72261;SDS011;60173;52.112;8.648;2023-03-31T04:31:13;10.18;;;2.92;;
72261;SDS011;60173;52.112;8.648;2023-03-31T04:33:39;9.80;;;2.78;;
72261;SDS011;60173;52.112;8.648;2023-03-31T04:36:06;10.57;;;2.50;;
72261;SDS011;60173;52.112;8.648;2023-03-31T04:38:34;11.98;;;2.97;;
72261;SDS011;60173;52.112;8.648;2023-03-31T04:41:00;10.52;;;2.72;;
72261;SDS011;60173;52.112;8.648;2023-03-31T04:43:26;10.20;;;3.05;;
72261;SDS011;60173;52.112;8.648;2023-03-31T04:45:53;7.68;;;2.80;;
72261;SDS011;60173;52.112;8.648;2023-03-31T04:48:19;9.20;;;3.17;;
72261;SDS011;60173;52.112;8.648;2023-03-31T04:50:45;7.80;;;2.70;;
72261;SDS011;60173;52.112;8.648;2023-03-31T04:53:12;8.80;;;3.30;;
72261;SDS011;60173;52.112;8.648;2023-03-31T04:55:38;13.18;;;3.60;;
72261;SDS011;60173;52.112;8.648;2023-03-31T04:58:04;16.80;;;4.13;;
72261;SDS011;60173;52.112;8.648;2023-03-31T05:00:31;9.27;;;3.55;;
72261;SDS011;60173;52.112;8.648;2023-03-31T05:02:58;13.48;;;3.80;;
72261;SDS011;60173;52.112;8.648;2023-03-31T05:05:24;8.82;;;3.50;;
72261;SDS011;60173;52.112;8.648;2023-03-31T05:07:51;10.70;;;3.83;;
72261;SDS011;60173;52.112;8.648;2023-03-31T05:10:17;13.75;;;4.07;;
72261;SDS011;60173;52.112;8.648;2023-03-31T05:12:43;13.38;;;4.07;;
72261;SDS011;60173;52.112;8.648;2023-03-31T05:15:10;16.55;;;4.40;;
72261;SDS011;60173;52.112;8.648;2023-03-31T05:17:36;16.33;;;4.22;;
72261;SDS011;60173;52.112;8.648;2023-03-31T05:20:03;10.07;;;4.00;;
72261;SDS011;60173;52.112;8.648;2023-03-31T05:22:32;13.55;;;3.50;;
72261;SDS011;60173;52.112;8.648;2023-03-31T05:25:00;11.68;;;3.97;;
72261;SDS011;60173;52.112;8.648;2023-03-31T05:27:26;10.30;;;3.72;;
72261;SDS011;60173;52.112;8.648;2023-03-31T05:29:53;10.20;;;3.47;;
72261;SDS011;60173;52.112;8.648;2023-03-31T05:32:19;19.00;;;4.22;;
72261;SDS011;60173;52.112;8.648;2023-03-31T05:34:45;12.32;;;3.88;;
72261;SDS011;60173;52.112;8.648;2023-03-31T05:37:12;12.52;;;4.10;;
72261;SDS011;60173;52.112;8.648;2023-03-31T05:39:38;12.25;;;3.40;;
72261;SDS011;60173;52.112;8.648;2023-03-31T05:42:04;11.68;;;3.72;;
72261;SDS011;60173;52.112;8.648;2023-03-31T05:44:31;12.65;;;3.38;;
72261;SDS011;60173;52.112;8.648;2023-03-31T05:46:57;16.50;;;3.58;;
72261;SDS011;60173;52.112;8.648;2023-03-31T05:49:23;12.18;;;3.05;;
72261;SDS011;60173;52.112;8.648;2023-03-31T05:51:50;15.18;;;3.90;;
72261;SDS011;60173;52.112;8.648;2023-03-31T05:54:16;18.55;;;3.88;;
72261;SDS011;60173;52.112;8.648;2023-03-31T05:56:42;15.43;;;3.72;;
72261;SDS011;60173;52.112;8.648;2023-03-31T05:59:09;12.88;;;3.33;;
72261;SDS011;60173;52.112;8.648;2023-03-31T06:01:35;12.98;;;3.70;;
72261;SDS011;60173;52.112;8.648;2023-03-31T06:04:02;8.77;;;2.88;;
72261;SDS011;60173;52.112;8.648;2023-03-31T06:06:28;13.25;;;3.05;;
72261;SDS011;60173;52.112;8.648;2023-03-31T06:08:55;9.65;;;2.88;;
72261;SDS011;60173;52.112;8.648;2023-03-31T06:11:21;12.70;;;3.15;;
72261;SDS011;60173;52.112;8.648;2023-03-31T06:13:48;10.43;;;3.40;;
72261;SDS011;60173;52.112;8.648;2023-03-31T06:16:15;11.07;;;3.42;;
72261;SDS011;60173;52.112;8.648;2023-03-31T06:18:42;8.68;;;2.53;;
72261;SDS011;60173;52.112;8.648;2023-03-31T06:21:10;12.77;;;3.10;;
72261;SDS011;60173;52.112;8.648;2023-03-31T06:23:38;10.43;;;2.63;;
72261;SDS011;60173;52.112;8.648;2023-03-31T06:26:05;10.05;;;2.47;;
72261;SDS011;60173;52.112;8.648;2023-03-31T06:28:33;9.70;;;2.50;;
72261;SDS011;60173;52.112;8.648;2023-03-31T06:33:32;9.73;;;2.80;;
72261;SDS011;60173;52.112;8.648;2023-03-31T06:35:59;10.35;;;2.80;;
72261;SDS011;60173;52.112;8.648;2023-03-31T06:38:26;10.00;;;2.30;;
72261;SDS011;60173;52.112;8.648;2023-03-31T06:40:53;8.48;;;2.42;;
72261;SDS011;60173;52.112;8.648;2023-03-31T06:43:19;13.07;;;2.72;;
72261;SDS011;60173;52.112;8.648;2023-03-31T06:45:46;12.10;;;2.65;;
72261;SDS011;60173;52.112;8.648;2023-03-31T06:48:13;8.63;;;2.60;;
72261;SDS011;60173;52.112;8.648;2023-03-31T06:50:40;10.32;;;2.67;;
72261;SDS011;60173;52.112;8.648;2023-03-31T06:53:07;9.05;;;2.40;;
72261;SDS011;60173;52.112;8.648;2023-03-31T06:55:34;12.88;;;3.25;;
72261;SDS011;60173;52.112;8.648;2023-03-31T06:58:02;7.60;;;2.60;;
72261;SDS011;60173;52.112;8.648;2023-03-31T07:00:29;8.38;;;2.42;;
72261;SDS011;60173;52.112;8.648;2023-03-31T07:02:56;8.10;;;2.60;;
72261;SDS011;60173;52.112;8.648;2023-03-31T07:05:23;11.68;;;2.78;;
72261;SDS011;60173;52.112;8.648;2023-03-31T07:07:49;12.05;;;2.22;;
72261;SDS011;60173;52.112;8.648;2023-03-31T07:10:16;7.15;;;2.00;;
72261;SDS011;60173;52.112;8.648;2023-03-31T07:12:42;8.27;;;1.92;;
72261;SDS011;60173;52.112;8.648;2023-03-31T07:15:09;8.88;;;1.77;;
72261;SDS011;60173;52.112;8.648;2023-03-31T07:17:35;9.63;;;2.70;;
72261;SDS011;60173;52.112;8.648;2023-03-31T07:20:04;5.45;;;2.08;;
72261;SDS011;60173;52.112;8.648;2023-03-31T07:22:31;10.85;;;2.00;;
72261;SDS011;60173;52.112;8.648;2023-03-31T07:24:58;8.18;;;1.92;;
72261;SDS011;60173;52.112;8.648;2023-03-31T07:27:24;8.88;;;2.30;;
72261;SDS011;60173;52.112;8.648;2023-03-31T07:29:51;9.18;;;2.00;;
72261;SDS011;60173;52.112;8.648;2023-03-31T07:32:17;8.15;;;2.10;;
72261;SDS011;60173;52.112;8.648;2023-03-31T07:34:44;8.70;;;2.13;;
72261;SDS011;60173;52.112;8.648;2023-03-31T07:37:10;6.63;;;2.22;;
72261;SDS011;60173;52.112;8.648;2023-03-31T07:39:36;7.72;;;2.05;;
72261;SDS011;60173;52.112;8.648;2023-03-31T07:42:03;8.02;;;1.90;;
72261;SDS011;60173;52.112;8.648;2023-03-31T07:44:31;5.75;;;1.63;;
72261;SDS011;60173;52.112;8.648;2023-03-31T07:46:58;4.47;;;1.98;;
72261;SDS011;60173;52.112;8.648;2023-03-31T07:49:25;10.00;;;2.65;;
72261;SDS011;60173;52.112;8.648;2023-03-31T07:51:51;5.38;;;1.60;;
72261;SDS011;60173;52.112;8.648;2023-03-31T07:54:18;6.50;;;2.08;;
72261;SDS011;60173;52.112;8.648;2023-03-31T07:56:44;5.75;;;1.70;;
72261;SDS011;60173;52.112;8.648;2023-03-31T07:59:10;6.93;;;1.33;;
72261;SDS011;60173;52.112;8.648;2023-03-31T08:01:37;6.85;;;1.58;;
72261;SDS011;60173;52.112;8.648;2023-03-31T08:04:03;5.45;;;1.30;;
72261;SDS011;60173;52.112;8.648;2023-03-31T08:06:30;7.70;;;1.60;;
72261;SDS011;60173;52.112;8.648;2023-03-31T08:08:56;5.32;;;1.60;;
72261;SDS011;60173;52.112;8.648;2023-03-31T08:11:23;9.75;;;1.70;;
72261;SDS011;60173;52.112;8.648;2023-03-31T08:13:51;5.45;;;1.60;;
72261;SDS011;60173;52.112;8.648;2023-03-31T08:16:17;7.03;;;1.60;;
72261;SDS011;60173;52.112;8.648;2023-03-31T08:18:44;5.32;;;1.52;;
72261;SDS011;60173;52.112;8.648;2023-03-31T08:21:10;6.45;;;1.95;;
72261;SDS011;60173;52.112;8.648;2023-03-31T08:23:37;5.53;;;1.65;;
72261;SDS011;60173;52.112;8.648;2023-03-31T08:26:07;3.63;;;1.27;;
72261;SDS011;60173;52.112;8.648;2023-03-31T08:28:41;6.70;;;1.70;;
72261;SDS011;60173;52.112;8.648;2023-03-31T08:31:08;6.53;;;1.60;;
72261;SDS011;60173;52.112;8.648;2023-03-31T08:33:35;4.40;;;1.50;;
72261;SDS011;60173;52.112;8.648;2023-03-31T08:36:03;3.92;;;1.63;;
72261;SDS011;60173;52.112;8.648;2023-03-31T08:38:30;6.82;;;1.98;;
72261;SDS011;60173;52.112;8.648;2023-03-31T08:41:03;7.53;;;1.67;;
72261;SDS011;60173;52.112;8.648;2023-03-31T08:43:33;5.47;;;1.80;;
72261;SDS011;60173;52.112;8.648;2023-03-31T08:46:06;6.60;;;1.90;;
72261;SDS011;60173;52.112;8.648;2023-03-31T08:48:38;9.90;;;2.13;;
72261;SDS011;60173;52.112;8.648;2023-03-31T08:51:10;5.60;;;1.98;;
72261;SDS011;60173;52.112;8.648;2023-03-31T08:53:42;8.27;;;2.72;;
72261;SDS011;60173;52.112;8.648;2023-03-31T08:58:44;6.13;;;2.10;;
72261;SDS011;60173;52.112;8.648;2023-03-31T09:01:25;8.55;;;2.00;;
72261;SDS011;60173;52.112;8.648;2023-03-31T09:04:34;6.82;;;2.35;;
72261;SDS011;60173;52.112;8.648;2023-03-31T09:07:15;8.95;;;2.25;;
72261;SDS011;60173;52.112;8.648;2023-03-31T09:18:41;3.63;;;1.65;;
72261;SDS011;60173;52.112;8.648;2023-03-31T09:21:14;8.13;;;1.90;;
72261;SDS011;60173;52.112;8.648;2023-03-31T09:23:45;6.25;;;2.08;;
72261;SDS011;60173;52.112;8.648;2023-03-31T09:26:22;3.03;;;1.33;;
72261;SDS011;60173;52.112;8.648;2023-03-31T09:29:10;4.55;;;1.42;;
72261;SDS011;60173;52.112;8.648;2023-03-31T09:31:41;6.05;;;1.40;;
72261;SDS011;60173;52.112;8.648;2023-03-31T09:34:11;5.68;;;1.58;;
72261;SDS011;60173;52.112;8.648;2023-03-31T09:36:49;3.85;;;1.15;;
72261;SDS011;60173;52.112;8.648;2023-03-31T09:39:15;5.40;;;1.50;;
72261;SDS011;60173;52.112;8.648;2023-03-31T09:41:43;4.35;;;1.10;;
72261;SDS011;60173;52.112;8.648;2023-03-31T09:44:21;3.67;;;1.52;;
72261;SDS011;60173;52.112;8.648;2023-03-31T09:46:51;5.85;;;1.42;;
72261;SDS011;60173;52.112;8.648;2023-03-31T09:49:22;4.25;;;1.30;;
72261;SDS011;60173;52.112;8.648;2023-03-31T09:54:46;4.18;;;1.30;;
72261;SDS011;60173;52.112;8.648;2023-03-31T09:57:21;4.45;;;1.23;;
72261;SDS011;60173;52.112;8.648;2023-03-31T10:00:33;3.90;;;1.17;;
72261;SDS011;60173;52.112;8.648;2023-03-31T10:02:55;4.50;;;1.25;;
72261;SDS011;60173;52.112;8.648;2023-03-31T10:08:19;6.05;;;1.40;;
72261;SDS011;60173;52.112;8.648;2023-03-31T10:13:28;2.30;;;1.05;;
72261;SDS011;60173;52.112;8.648;2023-03-31T10:16:01;5.68;;;1.27;;
72261;SDS011;60173;52.112;8.648;2023-03-31T10:18:33;4.00;;;1.00;;
72261;SDS011;60173;52.112;8.648;2023-03-31T10:21:02;3.92;;;1.20;;
72261;SDS011;60173;52.112;8.648;2023-03-31T10:23:32;3.72;;;1.08;;
72261;SDS011;60173;52.112;8.648;2023-03-31T10:25:59;3.95;;;1.27;;
72261;SDS011;60173;52.112;8.648;2023-03-31T10:28:29;4.32;;;1.52;;
72261;SDS011;60173;52.112;8.648;2023-03-31T10:30:58;3.08;;;1.45;;
72261;SDS011;60173;52.112;8.648;2023-03-31T10:33:26;3.72;;;1.30;;
72261;SDS011;60173;52.112;8.648;2023-03-31T10:36:00;6.10;;;1.45;;
72261;SDS011;60173;52.112;8.648;2023-03-31T10:38:35;3.20;;;1.40;;
72261;SDS011;60173;52.112;8.648;2023-03-31T10:41:04;7.18;;;1.48;;
72261;SDS011;60173;52.112;8.648;2023-03-31T10:43:36;5.00;;;1.40;;
72261;SDS011;60173;52.112;8.648;2023-03-31T10:46:06;5.47;;;1.55;;
72261;SDS011;60173;52.112;8.648;2023-03-31T10:48:39;3.35;;;1.20;;
72261;SDS011;60173;52.112;8.648;2023-03-31T10:51:11;5.80;;;2.05;;
72261;SDS011;60173;52.112;8.648;2023-03-31T10:53:40;3.53;;;1.30;;
72261;SDS011;60173;52.112;8.648;2023-03-31T11:07:05;6.68;;;1.40;;
72261;SDS011;60173;52.112;8.648;2023-03-31T11:09:37;5.18;;;1.65;;
72261;SDS011;60173;52.112;8.648;2023-03-31T11:12:17;6.68;;;1.38;;
72261;SDS011;60173;52.112;8.648;2023-03-31T11:20:50;8.30;;;1.77;;
72261;SDS011;60173;52.112;8.648;2023-03-31T11:29:12;7.82;;;2.05;;
72261;SDS011;60173;52.112;8.648;2023-03-31T11:38:04;5.40;;;2.30;;
72261;SDS011;60173;52.112;8.648;2023-03-31T11:43:18;7.20;;;2.10;;
72261;SDS011;60173;52.112;8.648;2023-03-31T11:45:52;7.55;;;2.13;;
72261;SDS011;60173;52.112;8.648;2023-03-31T11:50:59;8.88;;;2.15;;
72261;SDS011;60173;52.112;8.648;2023-03-31T11:53:31;6.47;;;1.67;;
72261;SDS011;60173;52.112;8.648;2023-03-31T11:56:01;5.72;;;2.20;;
72261;SDS011;60173;52.112;8.648;2023-03-31T11:58:33;8.10;;;2.22;;
72261;SDS011;60173;52.112;8.648;2023-03-31T12:01:06;4.20;;;2.40;;
72261;SDS011;60173;52.112;8.648;2023-03-31T12:03:46;7.15;;;2.58;;
72261;SDS011;60173;52.112;8.648;2023-03-31T12:06:20;10.32;;;2.45;;
72261;SDS011;60173;52.112;8.648;2023-03-31T12:08:52;10.45;;;3.13;;
72261;SDS011;60173;52.112;8.648;2023-03-31T12:11:29;7.93;;;2.42;;
72261;SDS011;60173;52.112;8.648;2023-03-31T12:14:07;9.25;;;2.75;;
72261;SDS011;60173;52.112;8.648;2023-03-31T12:16:45;8.77;;;2.60;;
72261;SDS011;60173;52.112;8.648;2023-03-31T12:21:51;8.50;;;2.88;;
72261;SDS011;60173;52.112;8.648;2023-03-31T12:24:27;7.57;;;3.53;;
72261;SDS011;60173;52.112;8.648;2023-03-31T12:29:52;8.85;;;3.75;;
72261;SDS011;60173;52.112;8.648;2023-03-31T12:32:45;9.00;;;2.90;;
72261;SDS011;60173;52.112;8.648;2023-03-31T12:35:22;10.10;;;2.90;;
72261;SDS011;60173;52.112;8.648;2023-03-31T12:46:50;9.63;;;3.38;;
72261;SDS011;60173;52.112;8.648;2023-03-31T13:01:10;7.30;;;2.05;;
72261;SDS011;60173;52.112;8.648;2023-03-31T13:06:57;9.25;;;2.83;;
72261;SDS011;60173;52.112;8.648;2023-03-31T13:11:39;9.50;;;2.53;;
72261;SDS011;60173;52.112;8.648;2023-03-31T13:14:14;10.55;;;2.72;;
72261;SDS011;60173;52.112;8.648;2023-03-31T13:16:48;7.22;;;2.13;;
72261;SDS011;60173;52.112;8.648;2023-03-31T13:19:26;5.60;;;1.70;;
72261;SDS011;60173;52.112;8.648;2023-03-31T13:21:59;8.63;;;2.00;;
72261;SDS011;60173;52.112;8.648;2023-03-31T13:24:28;6.93;;;1.90;;
72261;SDS011;60173;52.112;8.648;2023-03-31T13:26:56;6.93;;;1.95;;
72261;SDS011;60173;52.112;8.648;2023-03-31T13:29:25;7.13;;;2.08;;
72261;SDS011;60173;52.112;8.648;2023-03-31T13:32:05;8.57;;;2.05;;
72261;SDS011;60173;52.112;8.648;2023-03-31T13:34:43;9.60;;;2.03;;
72261;SDS011;60173;52.112;8.648;2023-03-31T13:37:29;11.82;;;2.85;;
72261;SDS011;60173;52.112;8.648;2023-03-31T13:40:20;6.53;;;1.83;;
72261;SDS011;60173;52.112;8.648;2023-03-31T13:48:47;6.95;;;1.88;;
72261;SDS011;60173;52.112;8.648;2023-03-31T14:05:11;6.85;;;2.05;;
72261;SDS011;60173;52.112;8.648;2023-03-31T14:07:54;9.25;;;2.30;;
72261;SDS011;60173;52.112;8.648;2023-03-31T14:10:31;10.88;;;2.42;;
72261;SDS011;60173;52.112;8.648;2023-03-31T14:13:10;6.93;;;2.00;;
72261;SDS011;60173;52.112;8.648;2023-03-31T14:15:48;10.00;;;2.22;;
72261;SDS011;60173;52.112;8.648;2023-03-31T14:18:20;7.10;;;2.30;;
72261;SDS011;60173;52.112;8.648;2023-03-31T14:27:06;9.85;;;2.35;;
72261;SDS011;60173;52.112;8.648;2023-03-31T14:32:56;8.73;;;2.20;;
72261;SDS011;60173;52.112;8.648;2023-03-31T14:35:52;7.22;;;2.20;;
72261;SDS011;60173;52.112;8.648;2023-03-31T14:38:20;7.80;;;2.50;;
72261;SDS011;60173;52.112;8.648;2023-03-31T14:40:51;9.75;;;2.17;;
72261;SDS011;60173;52.112;8.648;2023-03-31T14:43:20;8.05;;;2.13;;
72261;SDS011;60173;52.112;8.648;2023-03-31T14:46:07;9.65;;;2.45;;
72261;SDS011;60173;52.112;8.648;2023-03-31T14:48:42;7.60;;;2.47;;
72261;SDS011;60173;52.112;8.648;2023-03-31T14:51:11;7.95;;;2.00;;
72261;SDS011;60173;52.112;8.648;2023-03-31T14:53:40;7.50;;;2.20;;
72261;SDS011;60173;52.112;8.648;2023-03-31T14:56:11;9.90;;;2.20;;
72261;SDS011;60173;52.112;8.648;2023-03-31T14:58:46;5.53;;;2.17;;
72261;SDS011;60173;52.112;8.648;2023-03-31T15:01:17;8.32;;;2.08;;
72261;SDS011;60173;52.112;8.648;2023-03-31T15:03:46;9.25;;;2.45;;
72261;SDS011;60173;52.112;8.648;2023-03-31T15:06:13;4.78;;;1.90;;
72261;SDS011;60173;52.112;8.648;2023-03-31T15:08:41;7.03;;;2.10;;
72261;SDS011;60173;52.112;8.648;2023-03-31T15:11:08;7.47;;;2.15;;
72261;SDS011;60173;52.112;8.648;2023-03-31T15:18:56;4.38;;;1.85;;
72261;SDS011;60173;52.112;8.648;2023-03-31T15:21:25;7.40;;;2.22;;
72261;SDS011;60173;52.112;8.648;2023-03-31T15:23:56;9.52;;;2.35;;
72261;SDS011;60173;52.112;8.648;2023-03-31T15:26:25;5.97;;;2.00;;
72261;SDS011;60173;52.112;8.648;2023-03-31T15:29:11;11.05;;;2.08;;
72261;SDS011;60173;52.112;8.648;2023-03-31T15:32:01;7.43;;;2.08;;
72261;SDS011;60173;52.112;8.648;2023-03-31T15:34:38;6.32;;;1.52;;
72261;SDS011;60173;52.112;8.648;2023-03-31T15:37:05;7.55;;;2.05;;
72261;SDS011;60173;52.112;8.648;2023-03-31T15:39:32;8.45;;;1.83;;
72261;SDS011;60173;52.112;8.648;2023-03-31T15:42:02;5.18;;;2.10;;
72261;SDS011;60173;52.112;8.648;2023-03-31T15:44:45;4.50;;;1.60;;
72261;SDS011;60173;52.112;8.648;2023-03-31T15:47:16;7.80;;;1.90;;
72261;SDS011;60173;52.112;8.648;2023-03-31T15:49:52;6.45;;;1.83;;
72261;SDS011;60173;52.112;8.648;2023-03-31T15:52:21;5.50;;;1.60;;
72261;SDS011;60173;52.112;8.648;2023-03-31T15:54:52;9.55;;;2.20;;
72261;SDS011;60173;52.112;8.648;2023-03-31T15:57:18;6.45;;;1.95;;
72261;SDS011;60173;52.112;8.648;2023-03-31T15:59:48;7.57;;;2.00;;
72261;SDS011;60173;52.112;8.648;2023-03-31T16:02:22;6.57;;;1.92;;
72261;SDS011;60173;52.112;8.648;2023-03-31T16:04:53;8.25;;;2.38;;
72261;SDS011;60173;52.112;8.648;2023-03-31T16:07:25;10.02;;;2.10;;
72261;SDS011;60173;52.112;8.648;2023-03-31T16:10:02;8.80;;;1.85;;
72261;SDS011;60173;52.112;8.648;2023-03-31T16:12:38;7.25;;;2.25;;
72261;SDS011;60173;52.112;8.648;2023-03-31T16:15:12;8.93;;;2.10;;
72261;SDS011;60173;52.112;8.648;2023-03-31T16:17:51;8.23;;;2.28;;
72261;SDS011;60173;52.112;8.648;2023-03-31T16:22:54;6.38;;;1.92;;
72261;SDS011;60173;52.112;8.648;2023-03-31T16:25:22;14.38;;;2.60;;
72261;SDS011;60173;52.112;8.648;2023-03-31T16:27:51;7.03;;;1.83;;
72261;SDS011;60173;52.112;8.648;2023-03-31T16:30:21;8.70;;;2.30;;
72261;SDS011;60173;52.112;8.648;2023-03-31T16:33:17;10.10;;;2.20;;
72261;SDS011;60173;52.112;8.648;2023-03-31T16:35:46;9.35;;;2.80;;
72261;SDS011;60173;52.112;8.648;2023-03-31T16:38:14;8.85;;;2.60;;
72261;SDS011;60173;52.112;8.648;2023-03-31T16:40:41;10.13;;;2.47;;
72261;SDS011;60173;52.112;8.648;2023-03-31T16:45:56;9.32;;;2.33;;
72261;SDS011;60173;52.112;8.648;2023-03-31T16:48:24;8.38;;;2.50;;
72261;SDS011;60173;52.112;8.648;2023-03-31T16:50:53;10.90;;;2.60;;
72261;SDS011;60173;52.112;8.648;2023-03-31T16:53:25;8.45;;;2.22;;
72261;SDS011;60173;52.112;8.648;2023-03-31T16:55:53;9.13;;;2.30;;
72261;SDS011;60173;52.112;8.648;2023-03-31T16:58:20;11.55;;;2.55;;
72261;SDS011;60173;52.112;8.648;2023-03-31T17:00:47;13.63;;;2.67;;
72261;SDS011;60173;52.112;8.648;2023-03-31T17:03:13;6.75;;;2.40;;
72261;SDS011;60173;52.112;8.648;2023-03-31T17:05:41;5.97;;;2.20;;
72261;SDS011;60173;52.112;8.648;2023-03-31T17:08:09;9.05;;;2.28;;
72261;SDS011;60173;52.112;8.648;2023-03-31T17:10:37;10.70;;;2.85;;
72261;SDS011;60173;52.112;8.648;2023-03-31T17:13:04;7.25;;;2.75;;
72261;SDS011;60173;52.112;8.648;2023-03-31T17:15:32;6.25;;;2.50;;
72261;SDS011;60173;52.112;8.648;2023-03-31T17:17:59;7.65;;;2.53;;
72261;SDS011;60173;52.112;8.648;2023-03-31T17:20:25;10.68;;;2.72;;
72261;SDS011;60173;52.112;8.648;2023-03-31T17:22:52;12.88;;;2.63;;
72261;SDS011;60173;52.112;8.648;2023-03-31T17:25:19;9.68;;;2.38;;
72261;SDS011;60173;52.112;8.648;2023-03-31T17:27:46;9.32;;;3.00;;
72261;SDS011;60173;52.112;8.648;2023-03-31T17:30:12;10.65;;;2.67;;
72261;SDS011;60173;52.112;8.648;2023-03-31T17:32:38;8.90;;;2.92;;
72261;SDS011;60173;52.112;8.648;2023-03-31T17:35:05;8.48;;;2.50;;
72261;SDS011;60173;52.112;8.648;2023-03-31T17:37:32;10.23;;;2.30;;
72261;SDS011;60173;52.112;8.648;2023-03-31T17:39:59;12.40;;;3.00;;
72261;SDS011;60173;52.112;8.648;2023-03-31T17:42:25;5.85;;;2.00;;
72261;SDS011;60173;52.112;8.648;2023-03-31T17:44:52;8.80;;;2.42;;
72261;SDS011;60173;52.112;8.648;2023-03-31T17:47:18;5.03;;;1.80;;